createdAt,value
2018-01-16T00:04:02.529Z,11.90
2018-01-16T00:09:05.426Z,9.17
2018-01-16T00:14:08.092Z,8.37
2018-01-16T00:19:11.282Z,9.00
2018-01-16T00:24:13.945Z,11.77
2018-01-16T00:29:18.219Z,11.37
2018-01-16T00:34:20.837Z,11.37
2018-01-16T00:39:24.305Z,11.43
2018-01-16T00:44:26.966Z,9.83
2018-01-16T00:49:30.154Z,8.47
2018-01-16T00:54:32.786Z,12.17
2018-01-16T00:59:36.079Z,9.70
2018-01-16T01:04:38.702Z,13.40
2018-01-16T01:09:41.769Z,11.27
2018-01-16T01:14:44.443Z,14.10
2018-01-16T01:19:47.936Z,14.80
2018-01-16T01:24:50.619Z,14.67
2018-01-16T01:29:53.792Z,12.20
2018-01-16T01:34:57.246Z,12.37
2018-01-16T01:40:00.752Z,12.63
2018-01-16T01:45:03.397Z,11.03
2018-01-16T01:50:06.415Z,13.13
2018-01-16T01:55:09.838Z,11.83
2018-01-16T02:00:13.381Z,11.70
2018-01-16T02:05:16.021Z,12.93
2018-01-16T02:10:19.169Z,12.23
2018-01-16T02:15:22.605Z,10.93
2018-01-16T02:20:26.245Z,12.83
2018-01-16T02:25:28.891Z,12.97
2018-01-16T02:30:32.343Z,16.93
2018-01-16T02:35:34.990Z,14.47
2018-01-16T02:40:38.176Z,22.30
2018-01-16T02:45:41.058Z,21.83
2018-01-16T02:50:45.330Z,26.87
2018-01-16T02:55:48.021Z,31.27
2018-01-16T03:00:51.293Z,27.47
2018-01-16T03:05:54.750Z,24.97
2018-01-16T03:10:58.237Z,30.00
2018-01-16T03:16:01.605Z,17.27
2018-01-16T03:21:05.007Z,19.07
2018-01-16T03:26:07.752Z,24.80
2018-01-16T03:31:10.661Z,19.80
2018-01-16T03:36:14.069Z,13.13
2018-01-16T03:41:17.667Z,18.20
2018-01-16T03:46:20.335Z,16.23
2018-01-16T03:51:23.727Z,24.87
2018-01-16T03:56:27.153Z,16.50
2018-01-16T04:01:30.613Z,19.87
2018-01-16T04:06:33.261Z,19.00
2018-01-16T04:11:37.219Z,17.03
2018-01-16T04:16:39.907Z,20.93
2018-01-16T04:21:43.045Z,15.60
2018-01-16T04:26:45.708Z,17.40
2018-01-16T04:31:50.053Z,20.47
2018-01-16T04:36:52.670Z,18.17
2018-01-16T04:41:56.178Z,17.87
2018-01-16T04:46:58.821Z,13.93
2018-01-16T04:52:02.110Z,18.70
2018-01-16T04:57:04.791Z,16.07
2018-01-16T05:02:08.300Z,17.17
2018-01-16T05:07:11.741Z,14.70
2018-01-16T05:12:14.755Z,17.60
2018-01-16T05:17:17.381Z,12.00
2018-01-16T05:22:20.520Z,14.83
2018-01-16T05:27:23.894Z,13.10
2018-01-16T05:32:27.268Z,14.33
2018-01-16T05:37:30.688Z,13.83
2018-01-16T05:42:33.493Z,9.60
2018-01-16T05:47:36.140Z,12.60
2018-01-16T05:52:39.192Z,9.77
2018-01-16T05:57:42.631Z,13.10
2018-01-16T06:02:46.138Z,8.70
2018-01-16T06:07:48.805Z,12.50
2018-01-16T06:12:51.910Z,19.30
2018-01-16T06:17:54.549Z,14.87
2018-01-16T06:22:57.875Z,12.63
2018-01-16T06:28:00.522Z,18.57
2018-01-16T06:33:03.938Z,14.83
2018-01-16T06:38:06.558Z,13.17
2018-01-16T06:43:10.953Z,13.37
2018-01-16T06:48:13.636Z,14.30
2018-01-16T06:53:16.914Z,14.37
2018-01-16T06:58:20.370Z,16.63
2018-01-16T07:03:23.866Z,12.87
2018-01-16T07:08:26.663Z,14.50
2018-01-16T07:13:30.760Z,14.43
2018-01-16T07:18:33.421Z,10.53
2018-01-16T07:23:36.505Z,8.77
2018-01-16T07:28:40.029Z,11.90
2018-01-16T07:33:42.839Z,12.93
2018-01-16T07:38:45.512Z,11.17
2018-01-16T07:43:50.152Z,12.00
2018-01-16T07:48:53.585Z,11.47
2018-01-16T07:53:57.538Z,12.50
2018-01-16T07:59:00.534Z,14.33
2018-01-16T08:04:04.154Z,11.23
2018-01-16T08:09:06.820Z,12.53
2018-01-16T08:14:09.910Z,11.43
2018-01-16T08:19:12.537Z,9.97
2018-01-16T08:24:16.717Z,14.37
2018-01-16T08:29:19.499Z,13.00
2018-01-16T08:34:22.708Z,11.87
2018-01-16T08:39:26.135Z,10.97
2018-01-16T08:44:28.834Z,8.37
2018-01-16T08:49:31.482Z,11.70
2018-01-16T08:54:34.182Z,11.03
2018-01-16T08:59:36.850Z,10.77
2018-01-16T09:04:40.140Z,9.27
2018-01-16T09:09:43.634Z,11.40
2018-01-16T09:14:47.485Z,6.23
2018-01-16T09:19:51.003Z,9.70
2018-01-16T09:24:54.806Z,9.67
2018-01-16T09:29:58.251Z,11.37
2018-01-16T09:35:01.666Z,9.27
2018-01-16T09:40:04.467Z,9.53
2018-01-16T09:45:08.400Z,9.13
2018-01-16T09:50:11.111Z,9.13
2018-01-16T09:55:14.436Z,7.53
2018-01-16T10:00:17.224Z,9.97
2018-01-16T10:05:20.677Z,9.47
2018-01-16T10:10:23.464Z,10.53
2018-01-16T10:15:26.749Z,8.90
2018-01-16T10:20:29.388Z,8.13
2018-01-16T10:25:32.898Z,9.73
2018-01-16T10:30:35.554Z,7.53
2018-01-16T10:35:39.291Z,9.83
2018-01-16T10:40:42.843Z,11.43
2018-01-16T10:45:46.213Z,13.93
2018-01-16T10:50:49.621Z,15.07
2018-01-16T10:55:53.214Z,13.07
2018-01-16T11:00:55.881Z,10.63
2018-01-16T11:05:59.313Z,12.63
2018-01-16T11:11:01.970Z,14.50
2018-01-16T11:16:06.328Z,12.20
2018-01-16T11:21:08.973Z,13.93
2018-01-16T11:26:12.256Z,10.53
2018-01-16T11:31:14.956Z,12.07
2018-01-16T11:36:18.262Z,9.73
2018-01-16T11:41:20.950Z,13.03
2018-01-16T11:46:23.991Z,8.57
2018-01-16T11:51:26.759Z,5.53
2018-01-16T11:56:30.791Z,6.90
2018-01-16T12:01:34.211Z,7.87
2018-01-16T12:06:37.825Z,6.33
2018-01-16T12:11:40.477Z,6.57
2018-01-16T12:16:44.441Z,4.60
2018-01-16T12:21:47.980Z,6.00
2018-01-16T12:26:51.498Z,3.97
2018-01-16T12:31:54.156Z,5.37
2018-01-16T12:36:57.516Z,4.90
2018-01-16T12:42:00.173Z,4.40
2018-01-16T12:47:03.532Z,5.47
2018-01-16T12:52:06.194Z,5.43
2018-01-16T12:57:09.693Z,5.43
2018-01-16T13:02:12.356Z,5.93
2018-01-16T13:07:15.763Z,3.73
2018-01-16T13:12:18.566Z,4.60
2018-01-16T13:17:23.006Z,7.73
2018-01-16T13:22:26.452Z,5.30
2018-01-16T13:27:29.650Z,4.90
2018-01-16T13:32:32.297Z,5.50
2018-01-16T13:37:37.317Z,5.33
2018-01-16T13:42:39.958Z,4.50
2018-01-16T13:47:43.448Z,4.83
2018-01-16T13:52:46.096Z,4.07
2018-01-16T13:57:50.142Z,5.93
2018-01-16T14:02:52.864Z,7.37
2018-01-16T14:07:55.843Z,6.90
2018-01-16T14:12:59.258Z,8.13
2018-01-16T14:18:02.851Z,5.97
2018-01-16T14:23:05.624Z,6.40
2018-01-16T14:28:08.909Z,8.30
2018-01-16T14:33:11.543Z,5.70
2018-01-16T14:38:14.710Z,4.97
2018-01-16T14:43:18.148Z,8.20
2018-01-16T14:48:20.820Z,6.47
2018-01-16T14:53:24.231Z,9.20
2018-01-16T14:58:27.802Z,7.07
2018-01-16T15:03:30.444Z,8.83
2018-01-16T15:08:33.802Z,8.33
2018-01-16T15:13:36.432Z,8.67
2018-01-16T15:18:39.786Z,6.60
2018-01-16T15:23:43.177Z,7.80
2018-01-16T15:28:46.790Z,8.50
2018-01-16T15:33:49.556Z,6.63
2018-01-16T15:38:52.506Z,10.23
2018-01-16T15:43:55.123Z,4.93
2018-01-16T15:48:58.314Z,6.53
2018-01-16T15:54:00.958Z,8.53
2018-01-16T15:59:03.958Z,9.00
2018-01-16T16:04:07.372Z,10.10
2018-01-16T16:09:10.996Z,11.30
2018-01-16T16:14:14.396Z,9.60
2018-01-16T16:19:18.755Z,8.50
2018-01-16T16:24:22.160Z,10.80
2018-01-16T16:29:25.625Z,8.60
2018-01-16T16:34:28.272Z,9.70
2018-01-16T16:39:31.820Z,10.00
2018-01-16T16:44:34.440Z,7.63
2018-01-16T16:49:37.714Z,6.43
2018-01-16T16:54:41.108Z,7.33
2018-01-16T16:59:44.691Z,4.43
2018-01-16T17:04:47.341Z,6.60
2018-01-16T17:09:51.507Z,6.77
2018-01-16T17:14:54.162Z,3.20
2018-01-16T17:19:58.218Z,4.77
2018-01-16T17:25:02.207Z,4.70
2018-01-16T17:30:04.924Z,4.17
2018-01-16T17:35:08.297Z,4.40
2018-01-16T17:40:11.956Z,3.97
2018-01-16T17:45:14.904Z,3.47
2018-01-16T17:50:18.651Z,3.47
2018-01-16T17:55:21.282Z,5.10
2018-01-16T18:00:24.758Z,3.93
2018-01-16T18:05:27.375Z,4.47
2018-01-16T18:10:31.103Z,5.73
2018-01-16T18:15:34.597Z,5.13
2018-01-16T18:20:38.136Z,9.10
2018-01-16T18:25:40.914Z,3.73
2018-01-16T18:30:44.132Z,5.47
2018-01-16T18:35:46.951Z,6.80
2018-01-16T18:40:50.789Z,6.63
2018-01-16T18:45:53.431Z,5.03
2018-01-16T18:50:57.912Z,8.17
2018-01-16T18:56:00.648Z,6.27
2018-01-16T19:01:04.101Z,4.03
2018-01-16T19:06:07.472Z,3.10
2018-01-16T19:11:10.315Z,4.90
2018-01-16T19:16:13.898Z,3.67
2018-01-16T19:21:18.184Z,2.47
2018-01-16T19:26:20.886Z,3.00
2018-01-16T19:31:24.205Z,2.00
2018-01-16T19:36:27.008Z,3.23
2018-01-16T19:41:31.559Z,2.73
2018-01-16T19:46:35.380Z,2.90
2018-01-16T19:51:38.374Z,3.37
2018-01-16T19:56:41.912Z,2.30
2018-01-16T20:01:45.424Z,4.53
2018-01-16T20:06:48.328Z,4.23
2018-01-16T20:11:51.376Z,6.67
2018-01-16T20:16:54.343Z,3.27
2018-01-16T20:21:58.035Z,3.00
2018-01-16T20:27:00.801Z,5.87
2018-01-16T20:32:03.976Z,5.03
2018-01-16T20:37:07.393Z,4.60
2018-01-16T20:42:10.938Z,7.17
2018-01-16T20:47:13.663Z,6.90
2018-01-16T20:52:16.652Z,3.87
2018-01-16T20:57:20.049Z,5.60
2018-01-16T21:02:23.568Z,6.57
2018-01-16T21:07:26.265Z,8.53
2018-01-16T21:12:29.300Z,7.87
2018-01-16T21:17:31.991Z,7.67
2018-01-16T21:22:35.182Z,5.67
2018-01-16T21:27:37.787Z,7.27
2018-01-16T21:32:41.299Z,6.77
2018-01-16T21:37:43.948Z,4.97
2018-01-16T21:42:47.344Z,6.53
2018-01-16T21:47:50.026Z,6.17
2018-01-16T21:52:53.596Z,3.53
2018-01-16T21:57:56.298Z,3.10
2018-01-16T22:02:59.550Z,4.70
2018-01-16T22:08:02.309Z,5.60
2018-01-16T22:13:05.098Z,2.70
2018-01-16T22:18:07.794Z,4.87
2018-01-16T22:23:10.849Z,3.87
2018-01-16T22:28:14.556Z,2.73
2018-01-16T22:33:17.902Z,4.30
2018-01-16T22:38:21.012Z,7.50
2018-01-16T22:43:24.655Z,4.07
2018-01-16T22:48:27.331Z,4.20
2018-01-16T22:53:31.653Z,7.67
2018-01-16T22:58:34.637Z,4.93
2018-01-16T23:03:37.325Z,4.07
2018-01-16T23:08:40.054Z,3.27
2018-01-16T23:13:44.610Z,5.77
2018-01-16T23:18:48.457Z,4.57
2018-01-16T23:23:51.354Z,4.37
2018-01-16T23:28:54.277Z,4.93
2018-01-16T23:33:56.986Z,2.60
2018-01-16T23:38:59.646Z,3.83
2018-01-16T23:44:02.922Z,3.40
2018-01-16T23:49:05.572Z,6.73
2018-01-16T23:54:08.789Z,2.60
2018-01-16T23:59:11.485Z,5.73
